createdAt,value
2019-01-12T00:01:50.247Z,9.87
2019-01-12T00:04:17.511Z,8.17
2019-01-12T00:06:44.779Z,10.27
2019-01-12T00:09:12.471Z,11.10
2019-01-12T00:11:41.006Z,11.07
2019-01-12T00:14:08.263Z,11.30
2019-01-12T00:16:35.535Z,7.90
2019-01-12T00:19:02.800Z,10.70
2019-01-12T00:21:31.060Z,5.93
2019-01-12T00:23:58.300Z,8.10
2019-01-12T00:26:25.554Z,8.87
2019-01-12T00:28:52.802Z,6.57
2019-01-12T00:31:20.106Z,7.83
2019-01-12T00:33:47.342Z,10.80
2019-01-12T00:36:14.618Z,9.87
2019-01-12T00:38:41.927Z,8.53
2019-01-12T00:41:09.187Z,4.17
2019-01-12T00:43:36.454Z,5.70
2019-01-12T00:46:05.246Z,5.90
2019-01-12T00:48:32.515Z,2.53
2019-01-12T00:50:59.856Z,6.33
2019-01-12T00:53:27.116Z,1.50
2019-01-12T00:55:54.370Z,4.23
2019-01-12T00:58:21.653Z,3.97
2019-01-12T01:00:50.505Z,3.53
2019-01-12T01:03:17.774Z,5.83
2019-01-12T01:05:45.011Z,8.00
2019-01-12T01:08:12.263Z,5.83
2019-01-12T01:10:39.538Z,7.70
2019-01-12T01:13:06.779Z,12.17
2019-01-12T01:15:34.102Z,12.83
2019-01-12T01:18:01.386Z,14.07
2019-01-12T01:20:28.729Z,12.03
2019-01-12T01:22:56.001Z,18.87
2019-01-12T01:25:23.268Z,13.40
2019-01-12T01:27:50.610Z,15.53
2019-01-12T01:30:19.445Z,17.03
2019-01-12T01:32:47.265Z,14.70
2019-01-12T01:35:14.590Z,14.53
2019-01-12T01:37:41.927Z,21.60
2019-01-12T01:40:10.731Z,17.63
2019-01-12T01:42:37.981Z,17.67
2019-01-12T01:45:06.782Z,16.63
2019-01-12T01:47:34.061Z,15.73
2019-01-12T01:50:01.334Z,13.67
2019-01-12T01:52:28.612Z,12.50
2019-01-12T01:54:55.882Z,15.93
2019-01-12T01:57:23.158Z,18.07
2019-01-12T01:59:50.429Z,18.47
2019-01-12T02:02:17.701Z,23.10
2019-01-12T02:04:44.967Z,18.73
2019-01-12T02:07:12.222Z,19.73
2019-01-12T02:09:39.478Z,16.93
2019-01-12T02:12:06.782Z,21.37
2019-01-12T02:14:34.038Z,17.73
2019-01-12T02:17:01.296Z,20.43
2019-01-12T02:19:28.559Z,20.97
2019-01-12T02:21:55.827Z,19.17
2019-01-12T02:24:23.102Z,15.97
2019-01-12T02:26:50.383Z,17.07
2019-01-12T02:29:17.627Z,10.57
2019-01-12T02:31:44.910Z,13.20
2019-01-12T02:34:12.204Z,13.10
2019-01-12T02:36:39.546Z,17.37
2019-01-12T02:39:08.447Z,14.17
2019-01-12T02:41:35.704Z,11.13
2019-01-12T02:44:02.982Z,10.70
2019-01-12T02:46:30.245Z,5.67
2019-01-12T02:48:57.517Z,5.83
2019-01-12T02:51:24.790Z,7.70
2019-01-12T02:53:52.046Z,4.53
2019-01-12T02:56:19.333Z,4.17
2019-01-12T02:58:46.603Z,3.27
2019-01-12T03:01:13.846Z,4.50
2019-01-12T03:03:41.107Z,4.50
2019-01-12T03:06:08.445Z,4.07
2019-01-12T03:08:35.698Z,5.27
2019-01-12T03:11:02.965Z,5.03
2019-01-12T03:13:30.251Z,4.30
2019-01-12T03:15:57.515Z,5.87
2019-01-12T03:18:24.772Z,6.03
2019-01-12T03:20:52.118Z,3.40
2019-01-12T03:23:19.386Z,9.33
2019-01-12T03:25:46.653Z,5.30
2019-01-12T03:28:13.936Z,5.10
2019-01-12T03:30:41.224Z,6.77
2019-01-12T03:33:08.495Z,5.00
2019-01-12T03:35:35.850Z,6.03
2019-01-12T03:38:03.099Z,4.20
2019-01-12T03:40:30.375Z,5.57
2019-01-12T03:42:57.612Z,4.93
2019-01-12T03:45:24.870Z,6.53
2019-01-12T03:47:52.147Z,5.17
2019-01-12T03:50:20.938Z,3.63
2019-01-12T03:52:48.242Z,6.00
2019-01-12T03:55:25.264Z,5.53
2019-01-12T03:57:46.109Z,8.47
2019-01-12T04:00:17.562Z,5.63
2019-01-12T04:02:44.854Z,6.03
2019-01-12T04:05:12.105Z,5.03
2019-01-12T04:07:39.353Z,5.83
2019-01-12T04:10:08.198Z,8.60
2019-01-12T04:12:35.475Z,7.03
2019-01-12T04:15:02.728Z,7.40
2019-01-12T04:17:29.998Z,6.67
2019-01-12T04:19:57.238Z,7.40
2019-01-12T04:22:24.496Z,8.67
2019-01-12T04:24:53.301Z,9.10
2019-01-12T04:27:20.581Z,9.90
2019-01-12T04:29:47.867Z,7.90
2019-01-12T04:32:15.137Z,13.77
2019-01-12T04:34:42.497Z,10.70
2019-01-12T04:37:09.741Z,9.07
2019-01-12T04:39:37.014Z,17.30
2019-01-12T04:42:04.274Z,19.67
2019-01-12T04:44:31.534Z,12.80
2019-01-12T04:46:58.800Z,15.73
2019-01-12T04:49:26.088Z,12.37
2019-01-12T04:51:53.339Z,14.10
2019-01-12T04:54:20.612Z,17.30
2019-01-12T04:56:47.909Z,13.37
2019-01-12T04:59:15.174Z,15.73
2019-01-12T05:01:42.460Z,12.03
2019-01-12T05:04:09.711Z,17.27
2019-01-12T05:06:36.966Z,12.50
2019-01-12T05:09:05.774Z,15.77
2019-01-12T05:11:33.062Z,15.03
2019-01-12T05:14:00.314Z,16.73
2019-01-12T05:16:27.611Z,20.23
2019-01-12T05:18:54.883Z,16.10
2019-01-12T05:21:22.151Z,11.07
2019-01-12T05:23:49.396Z,13.37
2019-01-12T05:26:16.669Z,11.43
2019-01-12T05:28:43.922Z,15.17
2019-01-12T05:31:11.190Z,17.77
2019-01-12T05:33:38.434Z,17.20
2019-01-12T05:36:05.702Z,18.10
2019-01-12T05:38:32.979Z,15.70
2019-01-12T05:41:00.251Z,20.03
2019-01-12T05:43:27.540Z,18.00
2019-01-12T05:45:54.855Z,16.03
2019-01-12T05:48:22.163Z,17.63
2019-01-12T05:50:49.420Z,15.17
2019-01-12T05:53:16.659Z,18.17
2019-01-12T05:55:43.962Z,18.70
2019-01-12T05:58:11.208Z,13.80
2019-01-12T06:00:38.461Z,15.83
2019-01-12T06:03:05.739Z,27.47
2019-01-12T06:05:33.007Z,15.90
2019-01-12T06:08:00.277Z,20.07
2019-01-12T06:10:27.558Z,19.13
2019-01-12T06:12:54.823Z,31.27
2019-01-12T06:15:22.098Z,27.53
2019-01-12T06:17:49.363Z,21.37
2019-01-12T06:20:16.726Z,22.77
2019-01-12T06:22:44.758Z,28.97
2019-01-12T06:25:13.583Z,25.17
2019-01-12T06:27:40.843Z,22.13
2019-01-12T06:30:09.658Z,24.37
2019-01-12T06:32:36.928Z,22.90
2019-01-12T06:35:05.746Z,23.40
2019-01-12T06:37:33.028Z,27.50
2019-01-12T06:40:00.277Z,27.10
2019-01-12T06:42:27.549Z,22.57
2019-01-12T06:44:54.819Z,27.80
2019-01-12T06:47:22.085Z,31.80
2019-01-12T06:49:49.362Z,22.87
2019-01-12T06:52:18.481Z,25.83
2019-01-12T06:54:45.726Z,33.83
2019-01-12T06:57:12.985Z,25.67
2019-01-12T06:59:40.255Z,28.87
2019-01-12T07:02:07.530Z,24.03
2019-01-12T07:04:34.803Z,27.30
2019-01-12T07:07:02.085Z,29.03
2019-01-12T07:09:29.343Z,25.63
2019-01-12T07:11:56.626Z,26.20
2019-01-12T07:14:23.935Z,32.30
2019-01-12T07:16:51.210Z,27.67
2019-01-12T07:19:18.458Z,22.90
2019-01-12T07:21:45.746Z,18.77
2019-01-12T07:24:13.009Z,22.03
2019-01-12T07:26:40.279Z,21.43
2019-01-12T07:29:07.522Z,14.77
2019-01-12T07:31:34.815Z,18.00
2019-01-12T07:34:02.073Z,16.70
2019-01-12T07:36:29.366Z,16.77
2019-01-12T07:38:56.631Z,14.77
2019-01-12T07:41:23.921Z,12.87
2019-01-12T07:43:51.186Z,15.60
2019-01-12T07:46:18.469Z,18.77
2019-01-12T07:48:45.737Z,17.33
2019-01-12T07:51:13.009Z,15.47
2019-01-12T07:53:40.302Z,16.00
2019-01-12T07:56:07.551Z,20.60
2019-01-12T07:58:34.853Z,18.87
2019-01-12T08:01:03.888Z,15.80
2019-01-12T08:03:31.179Z,19.67
2019-01-12T08:05:58.445Z,17.43
2019-01-12T08:08:25.714Z,24.37
2019-01-12T08:10:53.007Z,17.57
2019-01-12T08:13:20.253Z,21.10
2019-01-12T08:15:47.534Z,13.57
2019-01-12T08:18:14.805Z,22.43
2019-01-12T08:20:42.079Z,17.37
2019-01-12T08:23:09.351Z,11.23
2019-01-12T08:25:36.668Z,11.77
2019-01-12T08:28:03.922Z,17.67
2019-01-12T08:30:31.210Z,15.37
2019-01-12T08:32:58.454Z,21.70
2019-01-12T08:35:25.730Z,27.60
2019-01-12T08:37:52.975Z,22.73
2019-01-12T08:40:20.270Z,21.37
2019-01-12T08:42:47.549Z,21.40
2019-01-12T08:45:14.929Z,17.80
2019-01-12T08:47:42.174Z,18.63
2019-01-12T08:50:11.007Z,16.80
2019-01-12T08:52:38.241Z,14.80
2019-01-12T08:55:06.710Z,15.83
2019-01-12T08:57:33.971Z,14.67
2019-01-12T09:00:01.210Z,15.63
2019-01-12T09:02:28.474Z,14.23
2019-01-12T09:04:55.716Z,20.93
2019-01-12T09:07:23.000Z,13.67
2019-01-12T09:09:50.247Z,13.33
2019-01-12T09:12:17.519Z,12.63
2019-01-12T09:14:44.774Z,22.10
2019-01-12T09:17:12.047Z,22.00
2019-01-12T09:19:39.336Z,16.23
2019-01-12T09:22:07.946Z,24.73
2019-01-12T09:24:35.755Z,22.03
2019-01-12T09:27:03.038Z,16.50
2019-01-12T09:29:30.307Z,21.67
2019-01-12T09:31:57.567Z,22.67
2019-01-12T09:34:24.862Z,21.30
2019-01-12T09:36:52.104Z,27.13
2019-01-12T09:39:19.378Z,18.37
2019-01-12T09:41:46.659Z,19.17
2019-01-12T09:44:13.935Z,19.10
2019-01-12T09:46:41.226Z,16.83
2019-01-12T09:49:08.469Z,21.97
2019-01-12T09:51:35.748Z,30.50
2019-01-12T09:54:03.042Z,29.97
2019-01-12T09:56:30.322Z,24.77
2019-01-12T09:58:57.663Z,28.67
2019-01-12T10:01:24.995Z,21.87
2019-01-12T10:03:52.290Z,26.90
2019-01-12T10:06:19.548Z,20.17
2019-01-12T10:08:46.848Z,21.63
2019-01-12T10:11:14.120Z,29.77
2019-01-12T10:13:41.394Z,30.57
2019-01-12T10:16:08.662Z,28.03
2019-01-12T10:18:35.923Z,23.70
2019-01-12T10:21:03.251Z,20.30
2019-01-12T10:23:30.515Z,18.03
2019-01-12T10:25:57.810Z,29.30
2019-01-12T10:28:25.066Z,21.53
2019-01-12T10:30:52.349Z,26.10
2019-01-12T10:33:19.602Z,24.17
2019-01-12T10:35:46.900Z,20.23
2019-01-12T10:38:14.218Z,17.43
2019-01-12T10:40:41.483Z,26.77
2019-01-12T10:43:08.751Z,27.07
2019-01-12T10:45:36.019Z,21.30
2019-01-12T10:48:03.356Z,25.70
2019-01-12T10:50:32.195Z,17.90
2019-01-12T10:52:59.532Z,22.57
2019-01-12T10:55:26.811Z,22.77
2019-01-12T10:57:54.058Z,20.00
2019-01-12T11:00:22.867Z,21.63
2019-01-12T11:02:50.171Z,23.27
2019-01-12T11:05:18.230Z,14.70
2019-01-12T11:07:45.476Z,26.87
2019-01-12T11:10:14.296Z,26.13
2019-01-12T11:12:43.079Z,23.17
2019-01-12T11:15:11.877Z,22.00
2019-01-12T11:17:39.137Z,25.90
2019-01-12T11:20:07.936Z,16.50
2019-01-12T11:22:35.258Z,18.57
2019-01-12T11:25:04.086Z,30.10
2019-01-12T11:27:31.351Z,24.60
2019-01-12T11:29:58.637Z,23.77
2019-01-12T11:32:25.906Z,19.93
2019-01-12T11:34:53.176Z,13.67
2019-01-12T11:37:20.424Z,30.93
2019-01-12T11:39:47.687Z,17.80
2019-01-12T11:42:14.981Z,14.87
2019-01-12T11:44:42.236Z,15.23
2019-01-12T11:47:09.586Z,18.50
2019-01-12T11:49:36.962Z,26.30
2019-01-12T11:52:04.310Z,25.10
2019-01-12T11:54:31.576Z,17.23
2019-01-12T11:56:58.833Z,17.53
2019-01-12T11:59:26.134Z,11.83
2019-01-12T12:01:53.410Z,22.47
2019-01-12T12:04:20.656Z,15.80
2019-01-12T12:06:47.923Z,10.83
2019-01-12T12:09:15.191Z,10.77
2019-01-12T12:11:42.450Z,22.83
2019-01-12T12:14:09.730Z,15.30
2019-01-12T12:16:37.018Z,17.53
2019-01-12T12:19:04.386Z,19.27
2019-01-12T12:21:31.670Z,22.87
2019-01-12T12:23:58.910Z,14.80
2019-01-12T12:26:26.195Z,19.70
2019-01-12T12:28:53.475Z,14.90
2019-01-12T12:31:20.716Z,15.20
2019-01-12T12:33:47.967Z,14.37
2019-01-12T12:36:15.282Z,16.60
2019-01-12T12:38:42.515Z,11.77
2019-01-12T12:41:09.788Z,21.00
2019-01-12T12:43:37.086Z,11.97
2019-01-12T12:46:04.374Z,14.87
2019-01-12T12:48:31.653Z,18.47
2019-01-12T12:50:58.914Z,22.77
2019-01-12T12:53:26.215Z,14.77
2019-01-12T12:55:53.482Z,15.43
2019-01-12T12:58:20.743Z,17.37
2019-01-12T13:00:47.987Z,15.60
2019-01-12T13:03:15.247Z,12.83
2019-01-12T13:05:42.525Z,22.03
2019-01-12T13:08:09.783Z,22.97
2019-01-12T13:10:37.062Z,20.97
2019-01-12T13:13:05.868Z,14.63
2019-01-12T13:15:33.156Z,18.40
2019-01-12T13:18:00.488Z,11.20
2019-01-12T13:20:27.828Z,17.43
2019-01-12T13:22:55.097Z,20.30
2019-01-12T13:25:22.382Z,20.00
2019-01-12T13:27:49.714Z,23.93
2019-01-12T13:30:18.513Z,17.40
2019-01-12T13:32:45.788Z,6.50
2019-01-12T13:35:13.098Z,17.93
2019-01-12T13:37:40.393Z,15.03
2019-01-12T13:40:09.508Z,17.80
2019-01-12T13:42:37.039Z,18.07
2019-01-12T13:45:05.858Z,12.77
2019-01-12T13:47:33.108Z,10.77
2019-01-12T13:50:00.398Z,16.00
2019-01-12T13:52:27.805Z,12.87
2019-01-12T13:54:57.175Z,13.77
2019-01-12T13:57:24.304Z,23.83
2019-01-12T13:59:51.581Z,19.53
2019-01-12T14:02:18.822Z,15.90
2019-01-12T14:04:46.094Z,10.50
2019-01-12T14:07:13.365Z,11.43
2019-01-12T14:09:40.629Z,17.37
2019-01-12T14:12:07.902Z,17.67
2019-01-12T14:14:35.186Z,13.40
2019-01-12T14:17:02.426Z,20.10
2019-01-12T14:19:29.705Z,25.10
2019-01-12T14:21:56.967Z,14.90
2019-01-12T14:24:24.251Z,13.97
2019-01-12T14:26:51.510Z,13.63
2019-01-12T14:29:18.775Z,24.27
2019-01-12T14:31:46.055Z,16.13
2019-01-12T14:34:13.342Z,15.00
2019-01-12T14:36:40.633Z,19.60
2019-01-12T14:39:09.666Z,10.80
2019-01-12T14:41:37.018Z,20.77
2019-01-12T14:44:04.338Z,13.17
2019-01-12T14:46:31.635Z,15.13
2019-01-12T14:48:58.890Z,16.33
2019-01-12T14:51:26.236Z,16.80
2019-01-12T14:53:53.525Z,17.27
2019-01-12T14:56:20.790Z,14.93
2019-01-12T14:58:48.055Z,16.17
2019-01-12T15:01:15.436Z,23.17
2019-01-12T15:03:42.728Z,13.83
2019-01-12T15:06:10.080Z,17.53
2019-01-12T15:08:37.334Z,20.97
2019-01-12T15:11:04.601Z,16.97
2019-01-12T15:13:31.895Z,12.60
2019-01-12T15:15:59.126Z,12.07
2019-01-12T15:18:26.396Z,19.87
2019-01-12T15:20:53.700Z,14.10
2019-01-12T15:23:20.987Z,17.03
2019-01-12T15:25:48.278Z,18.77
2019-01-12T15:28:16.179Z,12.33
2019-01-12T15:30:44.568Z,16.67
2019-01-12T15:33:11.934Z,15.17
2019-01-12T15:35:39.227Z,21.10
2019-01-12T15:38:06.565Z,34.47
2019-01-12T15:40:33.860Z,17.47
2019-01-12T15:43:01.137Z,21.13
2019-01-12T15:45:28.421Z,21.03
2019-01-12T15:47:55.706Z,17.73
2019-01-12T15:50:24.510Z,20.07
2019-01-12T15:52:51.844Z,16.93
2019-01-12T15:55:19.100Z,12.93
2019-01-12T15:57:46.440Z,15.33
2019-01-12T16:00:18.195Z,25.63
2019-01-12T16:02:45.430Z,16.17
2019-01-12T16:05:12.774Z,16.27
2019-01-12T16:07:40.109Z,19.93
2019-01-12T16:10:09.123Z,20.87
2019-01-12T16:12:36.386Z,19.00
2019-01-12T16:15:05.188Z,16.93
2019-01-12T16:17:35.134Z,18.97
2019-01-12T16:20:02.481Z,23.47
2019-01-12T16:22:30.831Z,22.60
2019-01-12T16:24:58.170Z,18.70
2019-01-12T16:27:25.445Z,22.23
2019-01-12T16:29:52.810Z,16.27
2019-01-12T16:32:20.074Z,24.83
2019-01-12T16:34:47.347Z,29.43
2019-01-12T16:37:14.598Z,19.87
2019-01-12T16:39:41.859Z,22.10
2019-01-12T16:42:09.131Z,22.47
2019-01-12T16:44:36.415Z,22.40
2019-01-12T16:47:05.234Z,19.40
2019-01-12T16:49:32.563Z,17.73
2019-01-12T16:51:59.888Z,16.57
2019-01-12T16:54:27.148Z,20.23
2019-01-12T16:56:54.414Z,17.57
2019-01-12T16:59:21.710Z,17.60
2019-01-12T17:01:49.086Z,20.00
2019-01-12T17:04:16.343Z,15.00
2019-01-12T17:06:43.616Z,18.30
2019-01-12T17:09:10.954Z,17.87
2019-01-12T17:11:38.239Z,20.23
2019-01-12T17:14:05.523Z,14.70
2019-01-12T17:16:32.803Z,18.23
2019-01-12T17:19:00.089Z,19.60
2019-01-12T17:21:27.362Z,17.00
2019-01-12T17:23:54.603Z,19.73
2019-01-12T17:26:21.869Z,18.83
2019-01-12T17:28:49.156Z,21.93
2019-01-12T17:31:16.394Z,20.13
2019-01-12T17:33:43.731Z,21.80
2019-01-12T17:36:10.974Z,18.23
2019-01-12T17:38:38.242Z,21.27
2019-01-12T17:41:05.512Z,25.67
2019-01-12T17:43:32.790Z,21.70
2019-01-12T17:46:00.077Z,15.57
2019-01-12T17:48:27.322Z,16.23
2019-01-12T17:50:54.601Z,17.70
2019-01-12T17:53:21.875Z,18.50
2019-01-12T17:55:49.147Z,18.30
2019-01-12T17:58:16.391Z,21.60
2019-01-12T18:00:45.310Z,18.63
2019-01-12T18:03:12.572Z,19.27
2019-01-12T18:05:39.808Z,16.37
2019-01-12T18:08:08.636Z,22.00
2019-01-12T18:10:35.893Z,22.07
2019-01-12T18:13:04.709Z,22.83
2019-01-12T18:15:31.992Z,29.53
2019-01-12T18:17:59.274Z,16.33
2019-01-12T18:20:26.614Z,25.90
2019-01-12T18:22:53.870Z,22.20
2019-01-12T18:25:21.186Z,27.07
2019-01-12T18:27:48.470Z,18.07
2019-01-12T18:30:19.927Z,18.77
2019-01-12T18:32:47.266Z,20.47
2019-01-12T18:35:16.068Z,14.13
2019-01-12T18:37:43.414Z,25.37
2019-01-12T18:40:12.214Z,12.90
2019-01-12T18:42:39.493Z,21.67
2019-01-12T18:45:08.286Z,20.83
2019-01-12T18:47:35.567Z,22.70
2019-01-12T18:50:03.602Z,21.77
2019-01-12T18:52:30.879Z,24.37
2019-01-12T18:54:58.154Z,16.80
2019-01-12T18:57:25.475Z,12.40
2019-01-12T18:59:52.782Z,22.57
2019-01-12T19:02:20.046Z,19.33
2019-01-12T19:04:47.324Z,16.40
2019-01-12T19:07:14.574Z,20.47
2019-01-12T19:09:41.850Z,23.50
2019-01-12T19:12:09.095Z,23.10
2019-01-12T19:14:36.359Z,21.07
2019-01-12T19:17:03.631Z,19.97
2019-01-12T19:19:30.927Z,19.47
2019-01-12T19:21:58.207Z,16.97
2019-01-12T19:24:25.463Z,16.37
2019-01-12T19:26:52.726Z,22.17
2019-01-12T19:29:19.970Z,26.47
2019-01-12T19:31:47.254Z,27.60
2019-01-12T19:34:14.559Z,15.13
2019-01-12T19:36:41.843Z,16.03
2019-01-12T19:39:09.158Z,20.43
2019-01-12T19:41:36.422Z,25.27
2019-01-12T19:44:05.223Z,24.57
2019-01-12T19:46:32.502Z,18.97
2019-01-12T19:48:59.754Z,17.57
2019-01-12T19:51:27.011Z,18.03
2019-01-12T19:53:54.283Z,18.30
2019-01-12T19:56:21.521Z,25.17
2019-01-12T19:58:48.795Z,15.60
2019-01-12T20:01:16.066Z,21.30
2019-01-12T20:03:43.315Z,20.60
2019-01-12T20:06:16.882Z,26.23
2019-01-12T20:08:39.571Z,18.57
2019-01-12T20:11:06.846Z,21.87
2019-01-12T20:13:34.112Z,16.90
2019-01-12T20:16:01.374Z,19.43
2019-01-12T20:18:28.651Z,17.90
2019-01-12T20:20:55.938Z,19.67
2019-01-12T20:23:23.210Z,19.33
2019-01-12T20:25:50.502Z,20.23
2019-01-12T20:28:17.774Z,20.47
2019-01-12T20:30:49.516Z,21.80
2019-01-12T20:33:24.416Z,20.43
2019-01-12T20:36:02.413Z,20.83
2019-01-12T20:38:31.217Z,16.00
2019-01-12T20:41:00.000Z,22.40
2019-01-12T20:43:28.815Z,21.40
2019-01-12T20:46:00.507Z,24.03
2019-01-12T20:48:29.326Z,25.17
2019-01-12T20:51:14.833Z,16.63
2019-01-12T20:53:43.642Z,17.43
2019-01-12T20:56:15.275Z,16.73
2019-01-12T20:58:44.080Z,20.03
2019-01-12T21:01:12.895Z,26.03
2019-01-12T21:03:41.770Z,20.23
2019-01-12T21:06:10.590Z,24.13
2019-01-12T21:08:42.322Z,16.47
2019-01-12T21:11:14.004Z,21.47
2019-01-12T21:13:42.802Z,15.90
2019-01-12T21:16:11.630Z,19.33
2019-01-12T21:18:38.901Z,11.50
2019-01-12T21:21:07.706Z,22.60
2019-01-12T21:23:34.978Z,19.53
2019-01-12T21:26:02.258Z,21.67
2019-01-12T21:28:29.526Z,20.40
2019-01-12T21:30:56.812Z,23.10
2019-01-12T21:33:24.065Z,14.17
2019-01-12T21:35:51.354Z,22.23
2019-01-12T21:38:18.618Z,25.83
2019-01-12T21:40:45.882Z,15.87
2019-01-12T21:43:13.147Z,17.50
2019-01-12T21:45:40.397Z,21.03
2019-01-12T21:48:08.211Z,22.10
2019-01-12T21:50:35.472Z,21.87
2019-01-12T21:53:03.571Z,18.33
2019-01-12T21:55:31.090Z,16.70
2019-01-12T21:57:59.834Z,19.67
2019-01-12T22:00:27.090Z,14.50
2019-01-12T22:02:54.358Z,18.87
2019-01-12T22:05:21.618Z,24.47
2019-01-12T22:07:48.859Z,20.00
2019-01-12T22:10:19.281Z,24.57
2019-01-12T22:12:45.698Z,19.10
2019-01-12T22:15:14.522Z,22.40
2019-01-12T22:17:41.763Z,21.60
2019-01-12T22:20:10.575Z,16.03
2019-01-12T22:22:37.843Z,20.63
2019-01-12T22:25:06.287Z,24.33
2019-01-12T22:27:33.573Z,20.10
2019-01-12T22:30:00.827Z,20.97
2019-01-12T22:32:28.095Z,18.87
2019-01-12T22:34:55.362Z,22.37
2019-01-12T22:37:22.648Z,18.23
2019-01-12T22:39:49.898Z,21.77
2019-01-12T22:42:17.186Z,26.07
2019-01-12T22:44:44.460Z,22.47
2019-01-12T22:47:11.711Z,20.67
2019-01-12T22:49:38.979Z,22.97
2019-01-12T22:52:06.318Z,18.30
2019-01-12T22:54:33.585Z,15.73
2019-01-12T22:57:00.872Z,37.03
2019-01-12T22:59:28.113Z,21.33
2019-01-12T23:04:39.206Z,23.83
2019-01-12T23:07:11.644Z,16.47
2019-01-12T23:09:36.930Z,12.63
2019-01-12T23:12:04.890Z,20.70
2019-01-12T23:14:33.042Z,24.47
2019-01-12T23:17:01.136Z,22.53
2019-01-12T23:19:28.410Z,12.97
2019-01-12T23:21:55.659Z,20.60
2019-01-12T23:24:22.933Z,21.23
2019-01-12T23:26:50.198Z,21.57
2019-01-12T23:29:17.478Z,28.73
2019-01-12T23:31:44.771Z,20.50
2019-01-12T23:34:12.062Z,24.67
2019-01-12T23:36:39.306Z,14.70
2019-01-12T23:39:09.737Z,30.33
2019-01-12T23:41:37.037Z,19.30
2019-01-12T23:44:05.818Z,25.47
2019-01-12T23:46:33.101Z,24.70
2019-01-12T23:49:00.369Z,21.73
2019-01-12T23:51:27.643Z,24.50
2019-01-12T23:53:54.907Z,19.27
2019-01-12T23:56:22.158Z,19.33
2019-01-12T23:58:49.434Z,16.67
